Time;durP1;ratioP1;P1;durP2;ratioP2;P2;SDS_P1;SDS_P2;PMS_P1;PMS_P2;Temp;Humidity;BMP_temperature;BMP_pressure;BME280_temperature;BME280_humidity;BME280_pressure;Samples;Min_cycle;Max_cycle;Signal;HPM_P1;HPM_P2
2023/03/15 00:01:00;;;;;;;9.40;8.90;;;;;;;;;;5071707;28;20186;-61
2023/03/15 00:03:25;;;;;;;9.70;9.20;;;;;;;;;;5068491;28;20507;-64
2023/03/15 00:05:53;;;;;;;9.95;9.45;;;;;;;;;;5071775;28;20043;-63
2023/03/15 00:08:20;;;;;;;9.65;9.15;;;;;;;;;;5070682;28;20387;-63
2023/03/15 00:10:46;;;;;;;9.23;8.75;;;;;;;;;;5070902;28;20024;-64
2023/03/15 00:13:12;;;;;;;9.75;9.25;;;;;;;;;;5069937;28;20505;-63
2023/03/15 00:15:44;;;;;;;9.57;9.07;;;;;;;;;;5071810;28;20021;-65
2023/03/15 00:18:09;;;;;;;9.10;8.70;;;;;;;;;;5071786;28;20379;-64
2023/03/15 00:20:36;;;;;;;9.20;8.77;;;;;;;;;;5071452;28;20017;-64
2023/03/15 00:23:01;;;;;;;8.95;8.55;;;;;;;;;;5071470;28;20021;-64
2023/03/15 00:25:26;;;;;;;10.00;9.50;;;;;;;;;;5063721;28;20534;-64
2023/03/15 00:27:52;;;;;;;9.82;9.32;;;;;;;;;;5060980;28;20530;-63
2023/03/15 00:30:17;;;;;;;9.57;9.10;;;;;;;;;;5069891;28;20025;-65
2023/03/15 00:32:42;;;;;;;9.40;9.00;;;;;;;;;;5066865;28;20056;-64
2023/03/15 00:35:10;;;;;;;9.48;9.02;;;;;;;;;;5071554;28;20025;-64
2023/03/15 00:37:36;;;;;;;10.48;9.88;;;;;;;;;;5071642;28;20069;-63
2023/03/15 00:40:02;;;;;;;10.07;9.57;;;;;;;;;;5074503;28;20126;-64
2023/03/15 00:42:27;;;;;;;9.90;9.40;;;;;;;;;;5073942;28;20029;-63
2023/03/15 00:44:54;;;;;;;9.45;9.00;;;;;;;;;;5073737;28;20017;-64
2023/03/15 00:47:19;;;;;;;8.73;8.32;;;;;;;;;;5076047;28;20643;-64
2023/03/15 00:49:45;;;;;;;9.80;9.30;;;;;;;;;;5074149;28;20020;-63
2023/03/15 00:52:11;;;;;;;9.52;9.02;;;;;;;;;;5074641;28;20019;-64
2023/03/15 00:54:36;;;;;;;10.02;9.52;;;;;;;;;;5074875;28;20414;-63
2023/03/15 00:57:02;;;;;;;9.20;8.80;;;;;;;;;;5073624;28;20056;-64
2023/03/15 00:59:33;;;;;;;9.48;8.98;;;;;;;;;;5073767;28;20024;-63
2023/03/15 01:02:00;;;;;;;9.98;9.48;;;;;;;;;;5073149;28;20020;-64
2023/03/15 01:04:25;;;;;;;9.80;9.30;;;;;;;;;;5063618;28;20467;-64
2023/03/15 01:06:50;;;;;;;9.20;8.80;;;;;;;;;;5073978;28;20020;-64
2023/03/15 01:09:15;;;;;;;9.90;9.40;;;;;;;;;;5074497;28;20016;-64
2023/03/15 01:11:41;;;;;;;9.82;9.32;;;;;;;;;;5074934;28;20423;-63
2023/03/15 01:14:08;;;;;;;10.02;9.52;;;;;;;;;;5074012;28;20403;-62
2023/03/15 01:16:33;;;;;;;10.18;9.63;;;;;;;;;;5073322;28;20044;-63
2023/03/15 01:18:59;;;;;;;10.50;9.90;;;;;;;;;;5072363;28;20131;-64
2023/03/15 01:21:24;;;;;;;8.88;8.48;;;;;;;;;;5063726;28;20043;-64
2023/03/15 01:23:50;;;;;;;9.05;8.65;;;;;;;;;;5074657;28;20087;-64
2023/03/15 01:26:16;;;;;;;9.57;9.07;;;;;;;;;;5073254;28;20017;-64
2023/03/15 01:28:42;;;;;;;9.77;9.27;;;;;;;;;;5061101;28;20032;-64
2023/03/15 01:31:15;;;;;;;9.00;8.60;;;;;;;;;;5060382;28;20025;-64
2023/03/15 01:33:42;;;;;;;9.48;8.98;;;;;;;;;;5073221;28;20090;-63
2023/03/15 01:36:07;;;;;;;9.30;8.90;;;;;;;;;;5064410;28;20033;-62
2023/03/15 01:38:33;;;;;;;10.35;9.75;;;;;;;;;;5068455;28;20024;-63
2023/03/15 01:40:59;;;;;;;9.70;9.20;;;;;;;;;;5073431;28;20063;-63
2023/03/15 01:43:25;;;;;;;9.10;8.70;;;;;;;;;;5066463;28;20105;-64
2023/03/15 01:46:05;;;;;;;9.55;9.05;;;;;;;;;;5055823;28;20035;-63
2023/03/15 01:48:33;;;;;;;9.10;8.70;;;;;;;;;;5072408;28;20017;-64
2023/03/15 01:51:01;;;;;;;9.80;9.30;;;;;;;;;;5060544;28;20024;-64
2023/03/15 01:53:29;;;;;;;9.48;9.00;;;;;;;;;;5073500;28;20433;-64
2023/03/15 01:55:54;;;;;;;9.25;8.85;;;;;;;;;;5073582;28;20098;-63
2023/03/15 01:58:21;;;;;;;9.48;8.98;;;;;;;;;;5073615;28;20028;-64
2023/03/15 02:00:46;;;;;;;9.50;9.00;;;;;;;;;;5073388;28;20546;-64
2023/03/15 02:03:17;;;;;;;10.02;9.52;;;;;;;;;;5073210;28;20048;-65
2023/03/15 02:05:44;;;;;;;9.80;9.30;;;;;;;;;;5071046;28;20027;-64
2023/03/15 02:08:11;;;;;;;9.27;8.77;;;;;;;;;;5069411;28;20070;-64
2023/03/15 02:10:39;;;;;;;9.38;8.88;;;;;;;;;;5062497;28;20028;-64
2023/03/15 02:13:05;;;;;;;9.63;9.13;;;;;;;;;;5073368;28;20490;-63
2023/03/15 02:15:31;;;;;;;10.27;9.70;;;;;;;;;;5073235;28;20024;-64
2023/03/15 02:17:56;;;;;;;9.50;9.00;;;;;;;;;;5073157;28;20120;-64
2023/03/15 02:20:27;;;;;;;9.40;8.98;;;;;;;;;;5072838;28;20017;-64
2023/03/15 02:23:13;;;;;;;8.95;8.55;;;;;;;;;;5072997;28;20533;-64
2023/03/15 02:25:38;;;;;;;9.70;9.20;;;;;;;;;;5061713;28;20043;-63
2023/03/15 02:28:05;;;;;;;9.07;8.68;;;;;;;;;;5067307;28;20468;-64
2023/03/15 02:30:31;;;;;;;9.90;9.40;;;;;;;;;;5073738;28;20040;-63
2023/03/15 02:32:57;;;;;;;9.73;9.23;;;;;;;;;;5073578;28;20020;-63
2023/03/15 02:35:24;;;;;;;9.48;8.98;;;;;;;;;;5072851;28;20024;-64
2023/03/15 02:37:50;;;;;;;10.32;9.73;;;;;;;;;;5072306;28;20054;-63
2023/03/15 02:40:17;;;;;;;9.63;9.13;;;;;;;;;;5062201;28;20020;-63
2023/03/15 02:42:42;;;;;;;9.65;9.15;;;;;;;;;;5070551;28;20548;-64
2023/03/15 02:45:08;;;;;;;9.15;8.75;;;;;;;;;;5072645;28;20028;-63
2023/03/15 02:47:33;;;;;;;9.52;9.02;;;;;;;;;;5073009;28;20503;-64
2023/03/15 02:49:58;;;;;;;9.52;9.02;;;;;;;;;;5072443;28;20052;-64
2023/03/15 02:52:25;;;;;;;9.60;9.10;;;;;;;;;;5071949;28;20020;-63
2023/03/15 02:54:50;;;;;;;10.35;9.75;;;;;;;;;;5069986;28;20024;-64
2023/03/15 02:57:16;;;;;;;8.80;8.40;;;;;;;;;;5071516;28;20052;-65
2023/03/15 02:59:41;;;;;;;9.57;9.07;;;;;;;;;;5058848;28;20025;-64
2023/03/15 03:02:08;;;;;;;9.40;8.90;;;;;;;;;;5071243;28;20506;-62
2023/03/15 03:04:33;;;;;;;9.75;9.25;;;;;;;;;;5080165;28;20016;-64
2023/03/15 03:06:58;;;;;;;9.93;9.43;;;;;;;;;;5072139;28;20032;-64
2023/03/15 03:09:24;;;;;;;9.48;8.98;;;;;;;;;;5072529;28;20090;-63
2023/03/15 03:11:49;;;;;;;9.95;9.45;;;;;;;;;;5072400;28;20021;-63
2023/03/15 03:14:14;;;;;;;9.77;9.27;;;;;;;;;;5080346;28;20387;-63
2023/03/15 03:16:41;;;;;;;9.68;9.18;;;;;;;;;;5074256;28;20122;-63
2023/03/15 03:19:07;;;;;;;9.27;8.88;;;;;;;;;;5071609;28;20035;-62
2023/03/15 03:21:32;;;;;;;9.20;8.80;;;;;;;;;;5069333;28;20535;-62
2023/03/15 03:23:57;;;;;;;9.25;8.80;;;;;;;;;;5067030;28;20020;-64
2023/03/15 03:26:26;;;;;;;9.48;8.98;;;;;;;;;;5075991;28;20020;-63
2023/03/15 03:28:52;;;;;;;10.10;9.52;;;;;;;;;;5072715;28;20101;-63
2023/03/15 03:31:19;;;;;;;10.57;9.98;;;;;;;;;;5071913;28;20543;-63
2023/03/15 03:33:45;;;;;;;9.63;9.13;;;;;;;;;;5059743;28;20008;-63
2023/03/15 03:36:11;;;;;;;9.10;8.70;;;;;;;;;;5072332;28;20107;-63
2023/03/15 03:38:41;;;;;;;9.85;9.35;;;;;;;;;;5064580;28;20422;-62
2023/03/15 03:41:07;;;;;;;9.10;8.70;;;;;;;;;;5060970;28;20035;-62
2023/03/15 03:43:33;;;;;;;9.77;9.27;;;;;;;;;;5071490;28;20391;-63
2023/03/15 03:45:58;;;;;;;9.38;8.88;;;;;;;;;;5071052;28;20016;-63
2023/03/15 03:48:23;;;;;;;9.57;9.07;;;;;;;;;;5070795;28;20016;-63
2023/03/15 03:50:49;;;;;;;10.20;9.60;;;;;;;;;;5071441;28;20020;-64
2023/03/15 03:53:14;;;;;;;9.93;9.43;;;;;;;;;;5071654;28;20460;-63
2023/03/15 03:55:41;;;;;;;9.90;9.40;;;;;;;;;;5073964;28;20059;-63
2023/03/15 03:58:07;;;;;;;9.38;8.88;;;;;;;;;;5066503;28;20032;-64
2023/03/15 04:00:32;;;;;;;9.90;9.40;;;;;;;;;;5070679;28;20028;-63
2023/03/15 04:02:57;;;;;;;9.70;9.20;;;;;;;;;;5071531;28;20028;-63
2023/03/15 04:05:23;;;;;;;11.68;10.90;;;;;;;;;;5068731;28;20590;-63
2023/03/15 04:07:48;;;;;;;9.77;9.27;;;;;;;;;;5054052;28;20043;-64
2023/03/15 04:10:13;;;;;;;9.30;8.85;;;;;;;;;;5069278;28;20028;-64
2023/03/15 04:12:42;;;;;;;9.57;9.07;;;;;;;;;;5080857;28;20020;-64
2023/03/15 04:15:10;;;;;;;9.65;9.15;;;;;;;;;;5061212;28;20020;-63
2023/03/15 04:17:35;;;;;;;9.90;9.40;;;;;;;;;;5075106;28;20028;-64
2023/03/15 04:20:01;;;;;;;9.75;9.25;;;;;;;;;;5068694;28;20029;-64
2023/03/15 04:22:26;;;;;;;10.02;9.48;;;;;;;;;;5074334;28;20369;-64
2023/03/15 04:24:51;;;;;;;9.70;9.20;;;;;;;;;;5074518;28;20021;-64
2023/03/15 04:27:17;;;;;;;9.73;9.23;;;;;;;;;;5075491;28;20529;-64
2023/03/15 04:29:42;;;;;;;10.07;9.55;;;;;;;;;;5075338;28;20408;-64
2023/03/15 04:32:08;;;;;;;9.82;9.32;;;;;;;;;;5073746;28;20043;-64
2023/03/15 04:34:37;;;;;;;10.30;9.70;;;;;;;;;;5074284;28;20024;-64
2023/03/15 04:37:03;;;;;;;9.57;9.07;;;;;;;;;;5074754;28;20028;-64
2023/03/15 04:39:29;;;;;;;9.30;8.80;;;;;;;;;;5073302;28;20385;-65
2023/03/15 04:41:54;;;;;;;10.13;9.52;;;;;;;;;;5062411;28;20031;-64
2023/03/15 04:44:19;;;;;;;9.57;9.07;;;;;;;;;;5074305;28;20027;-63
2023/03/15 04:46:45;;;;;;;9.52;9.02;;;;;;;;;;5066084;28;20017;-64
2023/03/15 04:49:10;;;;;;;9.30;8.80;;;;;;;;;;5067146;28;20017;-63
2023/03/15 04:51:35;;;;;;;9.15;8.68;;;;;;;;;;5074849;28;20489;-64
2023/03/15 04:54:01;;;;;;;9.02;8.63;;;;;;;;;;5074621;28;20507;-64
2023/03/15 04:56:27;;;;;;;9.55;9.05;;;;;;;;;;5073420;28;20041;-64
2023/03/15 04:58:52;;;;;;;9.07;8.68;;;;;;;;;;5074128;28;20078;-64
2023/03/15 05:01:17;;;;;;;9.88;9.38;;;;;;;;;;5069644;28;20049;-63
2023/03/15 05:03:43;;;;;;;9.73;9.23;;;;;;;;;;5072672;28;20090;-63
2023/03/15 05:06:08;;;;;;;9.93;9.43;;;;;;;;;;5064790;28;20017;-64
2023/03/15 05:08:35;;;;;;;10.70;10.10;;;;;;;;;;5059800;28;20131;-64
2023/03/15 05:11:00;;;;;;;9.82;9.32;;;;;;;;;;5074125;28;20426;-64
2023/03/15 05:13:26;;;;;;;10.18;9.68;;;;;;;;;;5072722;28;20028;-63
2023/03/15 05:15:51;;;;;;;9.90;9.40;;;;;;;;;;5069616;28;20032;-64
2023/03/15 05:18:17;;;;;;;9.82;9.32;;;;;;;;;;5071173;28;20028;-64
2023/03/15 05:20:42;;;;;;;11.35;10.75;;;;;;;;;;5070934;28;20443;-64
2023/03/15 05:23:07;;;;;;;11.35;10.75;;;;;;;;;;5064567;28;20045;-64
2023/03/15 05:25:32;;;;;;;10.55;10.05;;;;;;;;;;5073727;28;20024;-64
2023/03/15 05:27:58;;;;;;;9.70;9.30;;;;;;;;;;5083095;28;20031;-64
2023/03/15 05:30:23;;;;;;;10.10;9.60;;;;;;;;;;5067121;28;20025;-64
2023/03/15 05:32:48;;;;;;;12.63;11.93;;;;;;;;;;5072361;28;20105;-63
2023/03/15 05:35:14;;;;;;;9.73;9.32;;;;;;;;;;5068353;28;20060;-64
2023/03/15 05:37:39;;;;;;;10.68;10.18;;;;;;;;;;5066747;28;20028;-64
2023/03/15 05:40:07;;;;;;;11.63;11.02;;;;;;;;;;5063476;28;20025;-64
2023/03/15 05:42:32;;;;;;;11.50;10.90;;;;;;;;;;5063058;28;20455;-64
2023/03/15 05:44:58;;;;;;;10.27;9.77;;;;;;;;;;5072879;28;20023;-63
2023/03/15 05:47:23;;;;;;;10.65;10.15;;;;;;;;;;5070299;28;20059;-64
2023/03/15 05:49:48;;;;;;;10.10;9.60;;;;;;;;;;5072892;28;20016;-65
2023/03/15 05:52:14;;;;;;;9.35;8.95;;;;;;;;;;5072975;28;20021;-64
2023/03/15 05:54:39;;;;;;;10.40;9.90;;;;;;;;;;5074358;28;20017;-64
2023/03/15 05:57:05;;;;;;;9.88;9.48;;;;;;;;;;5072636;28;20480;-64
2023/03/15 05:59:30;;;;;;;10.65;10.15;;;;;;;;;;5072989;28;20020;-64
2023/03/15 06:01:55;;;;;;;10.40;9.90;;;;;;;;;;5067314;28;20013;-64
2023/03/15 06:04:21;;;;;;;10.13;9.65;;;;;;;;;;5063865;28;20020;-64
2023/03/15 06:06:46;;;;;;;9.68;9.27;;;;;;;;;;5073482;28;20520;-65
2023/03/15 06:09:11;;;;;;;10.45;9.95;;;;;;;;;;5073217;28;20040;-64
2023/03/15 06:11:37;;;;;;;10.82;10.32;;;;;;;;;;5076091;28;20674;-64
2023/03/15 06:14:02;;;;;;;10.10;9.70;;;;;;;;;;5073875;28;20037;-66
2023/03/15 06:16:27;;;;;;;10.40;9.90;;;;;;;;;;5070996;28;20060;-64
2023/03/15 06:18:53;;;;;;;10.80;10.30;;;;;;;;;;5072552;28;20029;-65
2023/03/15 06:21:19;;;;;;;9.98;9.57;;;;;;;;;;5072549;28;20527;-64
2023/03/15 06:23:44;;;;;;;10.65;10.15;;;;;;;;;;5071277;28;20459;-65
2023/03/15 06:26:10;;;;;;;11.23;10.73;;;;;;;;;;5072135;28;20031;-63
2023/03/15 06:28:35;;;;;;;10.90;10.40;;;;;;;;;;5072428;28;20017;-64
2023/03/15 06:31:07;;;;;;;9.98;9.57;;;;;;;;;;5072588;28;20012;-64
2023/03/15 06:33:32;;;;;;;10.40;9.90;;;;;;;;;;5062663;28;20028;-65
2023/03/15 06:35:57;;;;;;;10.73;10.23;;;;;;;;;;5056306;28;20022;-65
2023/03/15 06:38:23;;;;;;;10.35;9.85;;;;;;;;;;5071640;28;20364;-65
2023/03/15 06:40:48;;;;;;;10.02;9.63;;;;;;;;;;5072404;28;20024;-64
2023/03/15 06:43:18;;;;;;;10.07;9.68;;;;;;;;;;5072306;28;20473;-64
2023/03/15 06:45:44;;;;;;;10.63;10.13;;;;;;;;;;5071210;28;20479;-64
2023/03/15 06:48:09;;;;;;;10.57;10.07;;;;;;;;;;5072034;28;20112;-64
2023/03/15 06:50:34;;;;;;;10.85;10.35;;;;;;;;;;5069927;28;20092;-64
2023/03/15 06:53:00;;;;;;;10.40;9.90;;;;;;;;;;5070615;28;20021;-66
2023/03/15 06:55:25;;;;;;;10.32;9.82;;;;;;;;;;5070338;28;20476;-65
2023/03/15 06:57:50;;;;;;;10.38;9.88;;;;;;;;;;5071998;28;20496;-65
2023/03/15 07:00:16;;;;;;;10.48;9.98;;;;;;;;;;5069520;28;20548;-64
2023/03/15 07:02:41;;;;;;;10.43;9.93;;;;;;;;;;5072285;28;20619;-64
2023/03/15 07:05:07;;;;;;;10.65;10.15;;;;;;;;;;5071011;28;20016;-64
2023/03/15 07:07:32;;;;;;;10.02;9.63;;;;;;;;;;5069036;28;20029;-65
2023/03/15 07:09:57;;;;;;;10.40;9.90;;;;;;;;;;5071666;28;20013;-65
2023/03/15 07:12:23;;;;;;;10.57;10.07;;;;;;;;;;5070764;28;20032;-65
2023/03/15 07:14:48;;;;;;;10.87;10.37;;;;;;;;;;5072454;28;20035;-64
2023/03/15 07:17:14;;;;;;;10.50;10.00;;;;;;;;;;5070430;28;20800;-63
2023/03/15 07:19:39;;;;;;;11.02;10.52;;;;;;;;;;5057878;28;20016;-65
2023/03/15 07:22:04;;;;;;;10.40;9.90;;;;;;;;;;5065574;28;20380;-66
2023/03/15 07:24:30;;;;;;;11.30;10.80;;;;;;;;;;5067816;28;20046;-66
2023/03/15 07:26:55;;;;;;;11.43;10.93;;;;;;;;;;5071076;28;20023;-65
2023/03/15 07:29:22;;;;;;;11.50;11.00;;;;;;;;;;5072592;28;20077;-66
2023/03/15 07:31:47;;;;;;;10.52;10.02;;;;;;;;;;5079440;28;20058;-65
2023/03/15 07:34:12;;;;;;;10.60;10.10;;;;;;;;;;5075329;28;20431;-64
2023/03/15 07:36:38;;;;;;;10.27;9.88;;;;;;;;;;5067756;28;20483;-65
2023/03/15 07:39:03;;;;;;;10.55;10.05;;;;;;;;;;5067623;28;20063;-68
2023/03/15 07:41:30;;;;;;;11.07;10.57;;;;;;;;;;5078698;28;20033;-70
2023/03/15 07:43:55;;;;;;;10.93;10.43;;;;;;;;;;5067695;28;20375;-65
2023/03/15 07:46:20;;;;;;;10.75;10.25;;;;;;;;;;5067246;28;20020;-66
2023/03/15 07:48:46;;;;;;;10.98;10.48;;;;;;;;;;5063373;28;20528;-67
2023/03/15 07:51:11;;;;;;;10.82;10.32;;;;;;;;;;5052880;28;20025;-70
2023/03/15 07:53:36;;;;;;;11.48;10.98;;;;;;;;;;5069316;28;20028;-69
2023/03/15 07:56:02;;;;;;;11.18;10.68;;;;;;;;;;5082188;28;20133;-69
2023/03/15 07:58:27;;;;;;;11.15;10.65;;;;;;;;;;5069091;28;20340;-68
2023/03/15 08:00:56;;;;;;;10.02;9.63;;;;;;;;;;5069699;28;20032;-62
2023/03/15 08:03:22;;;;;;;10.40;9.90;;;;;;;;;;5057857;28;20023;-62
2023/03/15 08:05:48;;;;;;;11.00;10.50;;;;;;;;;;5067886;28;20096;-62
2023/03/15 08:08:13;;;;;;;10.52;10.02;;;;;;;;;;5069799;28;20449;-62
2023/03/15 08:10:39;;;;;;;10.40;9.90;;;;;;;;;;5058231;28;20776;-63
2023/03/15 08:13:04;;;;;;;10.18;9.73;;;;;;;;;;5060709;28;20021;-62
2023/03/15 08:15:29;;;;;;;10.70;10.20;;;;;;;;;;5061072;28;20024;-62
2023/03/15 08:17:55;;;;;;;10.10;9.70;;;;;;;;;;5059644;28;20021;-63
2023/03/15 08:20:20;;;;;;;10.93;10.43;;;;;;;;;;5064705;28;20031;-63
2023/03/15 08:22:48;;;;;;;9.98;9.57;;;;;;;;;;5070506;28;20542;-62
2023/03/15 08:25:16;;;;;;;10.60;10.10;;;;;;;;;;5070953;28;20016;-63
2023/03/15 08:27:41;;;;;;;10.00;9.60;;;;;;;;;;5058267;28;20421;-62
2023/03/15 08:30:08;;;;;;;10.60;10.10;;;;;;;;;;5070620;28;20095;-62
2023/03/15 08:32:33;;;;;;;10.27;9.77;;;;;;;;;;5060055;28;20021;-62
2023/03/15 08:34:58;;;;;;;9.65;9.25;;;;;;;;;;5068167;28;20039;-62
2023/03/15 08:37:24;;;;;;;10.50;10.00;;;;;;;;;;5070586;28;20489;-62
2023/03/15 08:39:56;;;;;;;9.93;9.52;;;;;;;;;;5065485;28;20535;-61
2023/03/15 08:42:22;;;;;;;10.00;9.60;;;;;;;;;;5070301;28;20060;-66
2023/03/15 08:44:47;;;;;;;9.93;9.52;;;;;;;;;;5071728;28;20052;-66
2023/03/15 08:47:13;;;;;;;10.13;9.63;;;;;;;;;;5069644;28;20107;-65
2023/03/15 08:49:38;;;;;;;10.30;9.80;;;;;;;;;;5070977;28;20044;-65
2023/03/15 08:52:03;;;;;;;11.90;11.30;;;;;;;;;;5067402;28;20034;-68
2023/03/15 08:54:30;;;;;;;10.80;10.30;;;;;;;;;;5057304;28;20019;-67
2023/03/15 08:56:55;;;;;;;11.02;10.52;;;;;;;;;;5059548;28;20053;-67
2023/03/15 08:59:21;;;;;;;10.27;9.77;;;;;;;;;;5067262;28;20082;-68
2023/03/15 09:01:46;;;;;;;11.50;10.90;;;;;;;;;;5072941;28;20020;-66
2023/03/15 09:04:11;;;;;;;11.10;10.60;;;;;;;;;;5067017;28;20094;-66
2023/03/15 09:06:36;;;;;;;11.23;10.63;;;;;;;;;;5071177;28;20384;-68
2023/03/15 09:09:04;;;;;;;11.27;10.70;;;;;;;;;;5081301;28;20044;-65
2023/03/15 09:11:29;;;;;;;11.80;11.20;;;;;;;;;;5063695;28;20052;-64
2023/03/15 09:13:54;;;;;;;11.00;10.48;;;;;;;;;;5075925;28;20070;-65
2023/03/15 09:16:19;;;;;;;11.35;10.75;;;;;;;;;;5071094;28;20552;-66
2023/03/15 09:18:45;;;;;;;11.93;11.32;;;;;;;;;;5060223;28;20116;-66
2023/03/15 09:21:10;;;;;;;11.52;10.93;;;;;;;;;;5070907;28;20040;-67
2023/03/15 09:23:36;;;;;;;11.18;10.63;;;;;;;;;;5071117;28;20062;-69
2023/03/15 09:26:01;;;;;;;10.65;10.15;;;;;;;;;;5064461;28;20126;-66
2023/03/15 09:28:27;;;;;;;10.95;10.45;;;;;;;;;;5071675;28;20127;-67
2023/03/15 09:30:53;;;;;;;11.32;10.73;;;;;;;;;;5060965;28;20117;-66
2023/03/15 09:33:21;;;;;;;11.48;10.88;;;;;;;;;;5070351;28;20032;-67
2023/03/15 09:35:46;;;;;;;11.40;10.80;;;;;;;;;;5068631;28;20455;-68
2023/03/15 09:38:11;;;;;;;11.18;10.60;;;;;;;;;;5074753;28;20024;-69
2023/03/15 09:40:43;;;;;;;11.55;10.95;;;;;;;;;;5070171;28;20024;-68
2023/03/15 09:43:09;;;;;;;11.05;10.55;;;;;;;;;;5077398;28;20027;-65
2023/03/15 09:45:56;;;;;;;11.02;10.52;;;;;;;;;;5077819;28;20096;-66
2023/03/15 09:48:24;;;;;;;10.30;9.80;;;;;;;;;;5080919;28;20024;-68
2023/03/15 09:50:56;;;;;;;9.93;9.48;;;;;;;;;;5071690;28;20029;-66
2023/03/15 09:53:31;;;;;;;10.30;9.80;;;;;;;;;;5070541;28;20027;-67
2023/03/15 09:55:56;;;;;;;10.25;9.75;;;;;;;;;;5060103;28;20045;-66
2023/03/15 09:58:25;;;;;;;10.07;9.57;;;;;;;;;;5074311;28;20108;-67
2023/03/15 10:00:55;;;;;;;10.27;9.77;;;;;;;;;;5074526;28;20388;-65
2023/03/15 10:03:25;;;;;;;9.82;9.40;;;;;;;;;;5073999;28;20020;-67
2023/03/15 10:05:54;;;;;;;11.30;10.70;;;;;;;;;;5072935;28;20020;-67
2023/03/15 10:08:20;;;;;;;10.02;9.52;;;;;;;;;;5063965;28;20024;-66
2023/03/15 10:10:49;;;;;;;10.10;9.60;;;;;;;;;;5070557;28;20025;-66
2023/03/15 10:13:17;;;;;;;10.10;9.60;;;;;;;;;;5072421;28;20027;-67
2023/03/15 10:15:45;;;;;;;9.90;9.40;;;;;;;;;;5071057;28;20112;-66
2023/03/15 10:18:13;;;;;;;11.40;10.80;;;;;;;;;;5058952;28;20103;-69
2023/03/15 10:20:42;;;;;;;10.43;9.93;;;;;;;;;;5056922;28;20032;-69
2023/03/15 10:23:35;;;;;;;9.52;9.13;;;;;;;;;;5070173;28;20032;-70
2023/03/15 10:26:02;;;;;;;10.10;9.60;;;;;;;;;;5068334;28;20384;-69
2023/03/15 10:28:28;;;;;;;10.95;10.38;;;;;;;;;;5062534;28;20017;-69
2023/03/15 10:30:57;;;;;;;10.10;9.60;;;;;;;;;;5067439;28;20078;-69
2023/03/15 10:33:28;;;;;;;10.20;9.70;;;;;;;;;;5072621;28;20017;-69
2023/03/15 10:35:54;;;;;;;9.95;9.45;;;;;;;;;;5071934;28;20088;-70
2023/03/15 10:38:21;;;;;;;10.52;10.02;;;;;;;;;;5066793;28;20020;-70
2023/03/15 10:40:50;;;;;;;10.73;10.23;;;;;;;;;;5078023;28;20131;-69
2023/03/15 10:43:17;;;;;;;10.30;9.80;;;;;;;;;;5064737;28;20103;-69
2023/03/15 10:45:45;;;;;;;10.57;10.07;;;;;;;;;;5077777;28;20016;-69
2023/03/15 10:48:11;;;;;;;9.45;9.05;;;;;;;;;;5069858;28;20016;-70
2023/03/15 10:50:36;;;;;;;9.68;9.25;;;;;;;;;;5058626;28;20025;-70
2023/03/15 10:53:07;;;;;;;10.95;10.43;;;;;;;;;;5071179;28;20039;-69
2023/03/15 10:55:41;;;;;;;9.60;9.20;;;;;;;;;;5058698;28;20039;-69
2023/03/15 10:58:34;;;;;;;9.83;9.40;;;;;;;;;;5070110;28;20041;-69
2023/03/15 11:00:59;;;;;;;10.18;9.68;;;;;;;;;;5075604;28;20071;-69
2023/03/15 11:03:25;;;;;;;10.07;9.57;;;;;;;;;;5077438;28;20427;-69
2023/03/15 11:05:52;;;;;;;9.63;9.23;;;;;;;;;;5064347;28;20034;-69
2023/03/15 11:08:18;;;;;;;9.30;8.90;;;;;;;;;;5057749;28;20609;-69
2023/03/15 11:10:45;;;;;;;11.05;10.48;;;;;;;;;;5057606;28;20032;-69
2023/03/15 11:13:21;;;;;;;10.32;9.82;;;;;;;;;;5061538;28;20052;-69
2023/03/15 11:15:48;;;;;;;9.52;9.10;;;;;;;;;;5071915;28;20013;-69
2023/03/15 11:18:18;;;;;;;9.73;9.25;;;;;;;;;;5074755;28;20386;-69
2023/03/15 11:20:44;;;;;;;12.50;11.80;;;;;;;;;;5077241;28;20492;-66
2023/03/15 11:23:30;;;;;;;11.50;10.90;;;;;;;;;;5069727;28;20058;-67
2023/03/15 11:25:55;;;;;;;10.68;10.18;;;;;;;;;;5068293;28;20020;-67
2023/03/15 11:28:24;;;;;;;11.68;11.07;;;;;;;;;;5059835;28;20558;-65
2023/03/15 11:30:50;;;;;;;11.95;11.35;;;;;;;;;;5068490;28;20026;-66
2023/03/15 11:33:25;;;;;;;11.70;11.10;;;;;;;;;;5077371;28;20035;-69
2023/03/15 11:35:51;;;;;;;11.63;11.02;;;;;;;;;;5064584;28;20178;-67
2023/03/15 11:38:23;;;;;;;11.45;10.85;;;;;;;;;;5067924;28;20035;-66
2023/03/15 11:40:52;;;;;;;11.02;10.43;;;;;;;;;;5067302;28;20027;-66
2023/03/15 11:43:21;;;;;;;11.07;10.48;;;;;;;;;;5067058;28;20213;-64
2023/03/15 11:46:01;;;;;;;11.77;11.18;;;;;;;;;;5056486;28;20040;-65
2023/03/15 11:48:43;;;;;;;10.68;10.18;;;;;;;;;;5076648;28;20073;-66
2023/03/15 11:51:10;;;;;;;10.77;10.23;;;;;;;;;;5058285;28;20027;-66
2023/03/15 11:53:37;;;;;;;11.68;11.07;;;;;;;;;;5077234;28;20031;-64
2023/03/15 11:56:38;;;;;;;10.43;9.93;;;;;;;;;;5080015;28;20481;-66
2023/03/15 11:59:06;;;;;;;11.48;10.88;;;;;;;;;;5010649;28;20255;-69
2023/03/15 12:01:32;;;;;;;12.25;11.55;;;;;;;;;;5048582;28;20029;-68
2023/03/15 12:04:16;;;;;;;11.73;11.13;;;;;;;;;;5064431;28;20016;-70
2023/03/15 12:06:41;;;;;;;11.20;10.60;;;;;;;;;;5067202;28;20146;-66
2023/03/15 12:09:27;;;;;;;10.60;10.10;;;;;;;;;;5074941;28;20136;-68
2023/03/15 12:11:56;;;;;;;11.43;10.82;;;;;;;;;;5070987;28;20020;-71
2023/03/15 12:14:26;;;;;;;11.35;10.75;;;;;;;;;;5077279;28;20024;-68
2023/03/15 12:16:56;;;;;;;11.77;11.18;;;;;;;;;;5066936;28;20036;-64
2023/03/15 12:19:24;;;;;;;11.68;11.07;;;;;;;;;;5067084;28;20029;-64
2023/03/15 12:21:52;;;;;;;10.30;9.80;;;;;;;;;;5070931;28;20386;-66
2023/03/15 12:24:22;;;;;;;11.63;11.02;;;;;;;;;;5069004;28;20021;-66
2023/03/15 12:26:50;;;;;;;11.75;11.15;;;;;;;;;;5071636;28;20016;-70
2023/03/15 12:29:25;;;;;;;10.57;10.07;;;;;;;;;;5072432;28;20382;-67
2023/03/15 12:31:56;;;;;;;10.75;10.25;;;;;;;;;;5061324;28;20020;-68
2023/03/15 12:34:26;;;;;;;11.02;10.43;;;;;;;;;;5076581;28;20031;-65
2023/03/15 12:36:55;;;;;;;11.23;10.63;;;;;;;;;;5068815;28;20024;-65
2023/03/15 12:39:34;;;;;;;10.90;10.30;;;;;;;;;;5081853;28;20056;-65
2023/03/15 12:41:59;;;;;;;11.23;10.63;;;;;;;;;;5079237;28;20023;-66
2023/03/15 12:44:30;;;;;;;10.32;9.82;;;;;;;;;;5069634;28;20032;-65
2023/03/15 12:46:57;;;;;;;11.57;10.98;;;;;;;;;;5068158;28;20037;-64
2023/03/15 12:49:23;;;;;;;11.45;10.85;;;;;;;;;;5072622;28;20035;-68
2023/03/15 12:51:56;;;;;;;10.98;10.38;;;;;;;;;;5064817;28;20032;-67
2023/03/15 12:54:22;;;;;;;11.63;11.02;;;;;;;;;;5068412;28;20031;-68
2023/03/15 12:56:53;;;;;;;12.23;11.52;;;;;;;;;;5068963;28;20113;-68
2023/03/15 12:59:30;;;;;;;11.60;11.00;;;;;;;;;;5064608;28;20101;-68
2023/03/15 13:01:56;;;;;;;10.05;9.55;;;;;;;;;;5068854;28;20016;-66
2023/03/15 13:04:21;;;;;;;10.60;10.07;;;;;;;;;;5073289;28;20369;-67
2023/03/15 13:07:06;;;;;;;12.70;12.00;;;;;;;;;;5079488;28;20024;-68
2023/03/15 13:09:31;;;;;;;;;;;;;;;;;;5072792;28;20029;-68
2023/03/15 13:11:59;;;;;;;10.47;9.97;;;;;;;;;;5071830;28;19931;-69
2023/03/15 13:14:28;;;;;;;11.10;10.50;;;;;;;;;;5072606;28;20269;-66
2023/03/15 13:17:06;;;;;;;11.50;10.90;;;;;;;;;;5065320;28;20028;-65
2023/03/15 13:19:35;;;;;;;11.68;11.05;;;;;;;;;;5066759;28;20029;-64
2023/03/15 13:22:10;;;;;;;11.48;10.88;;;;;;;;;;5068594;28;20031;-68
2023/03/15 13:24:41;;;;;;;11.40;10.80;;;;;;;;;;5069233;28;20080;-66
2023/03/15 13:27:22;;;;;;;11.02;10.43;;;;;;;;;;5063899;28;20048;-64
2023/03/15 13:29:47;;;;;;;11.15;10.55;;;;;;;;;;5066666;28;20028;-67
2023/03/15 13:32:14;;;;;;;10.48;9.95;;;;;;;;;;5068336;28;20073;-66
2023/03/15 13:34:41;;;;;;;11.32;10.73;;;;;;;;;;5063559;28;20056;-68
2023/03/15 13:37:10;;;;;;;11.00;10.40;;;;;;;;;;5076252;28;20056;-66
2023/03/15 13:39:36;;;;;;;11.27;10.68;;;;;;;;;;5082882;28;20020;-65
2023/03/15 13:42:05;;;;;;;12.68;11.98;;;;;;;;;;5059735;28;20035;-64
2023/03/15 13:44:31;;;;;;;11.25;10.65;;;;;;;;;;5077844;28;20053;-64
2023/03/15 13:46:57;;;;;;;11.63;11.02;;;;;;;;;;5065128;28;20490;-66
2023/03/15 13:49:23;;;;;;;10.93;10.32;;;;;;;;;;5059579;28;20051;-68
2023/03/15 13:51:49;;;;;;;11.10;10.50;;;;;;;;;;5060380;28;20027;-68
2023/03/15 13:54:15;;;;;;;11.38;10.77;;;;;;;;;;5072369;28;20033;-68
2023/03/15 13:56:54;;;;;;;11.45;10.85;;;;;;;;;;5072221;28;20060;-65
2023/03/15 13:59:20;;;;;;;11.68;11.05;;;;;;;;;;5067179;28;20039;-65
2023/03/15 14:01:48;;;;;;;11.35;10.75;;;;;;;;;;5077500;28;20020;-68
2023/03/15 14:04:17;;;;;;;11.25;10.65;;;;;;;;;;5075420;28;20115;-64
2023/03/15 14:06:44;;;;;;;10.65;10.07;;;;;;;;;;5065236;28;20109;-68
2023/03/15 14:09:15;;;;;;;9.95;9.45;;;;;;;;;;5077888;28;20033;-66
2023/03/15 14:11:42;;;;;;;12.63;11.93;;;;;;;;;;5079805;28;20020;-65
2023/03/15 14:14:19;;;;;;;12.00;11.30;;;;;;;;;;5072460;28;20085;-66
2023/03/15 14:16:45;;;;;;;10.95;10.35;;;;;;;;;;5073007;28;20028;-69
2023/03/15 14:19:14;;;;;;;12.48;11.77;;;;;;;;;;5065846;28;20073;-67
2023/03/15 14:21:43;;;;;;;11.93;11.23;;;;;;;;;;5049749;28;20183;-67
2023/03/15 14:24:12;;;;;;;11.85;11.15;;;;;;;;;;5066525;28;20109;-64
2023/03/15 14:26:38;;;;;;;12.50;11.80;;;;;;;;;;5070788;28;20143;-66
2023/03/15 14:29:06;;;;;;;12.27;11.57;;;;;;;;;;5067051;28;20128;-65
2023/03/15 14:31:34;;;;;;;11.48;10.88;;;;;;;;;;5073431;28;20024;-67